sensor_id;sensor_type;location;lat;lon;timestamp;P1;durP1;ratioP1;P2;durP2;ratioP2
68353;SDS011;55274;43.060;25.618;2023-12-29T00:01:52;37.22;;;12.98;;
68353;SDS011;55274;43.060;25.618;2023-12-29T00:04:18;44.40;;;13.40;;
68353;SDS011;55274;43.060;25.618;2023-12-29T00:06:44;37.28;;;12.30;;
68353;SDS011;55274;43.060;25.618;2023-12-29T00:09:09;46.40;;;12.88;;
68353;SDS011;55274;43.060;25.618;2023-12-29T00:11:36;42.83;;;13.50;;
68353;SDS011;55274;43.060;25.618;2023-12-29T00:14:01;42.58;;;13.63;;
68353;SDS011;55274;43.060;25.618;2023-12-29T00:16:27;34.92;;;12.57;;
68353;SDS011;55274;43.060;25.618;2023-12-29T00:18:53;52.17;;;12.77;;
68353;SDS011;55274;43.060;25.618;2023-12-29T00:21:19;44.58;;;12.57;;
68353;SDS011;55274;43.060;25.618;2023-12-29T00:23:44;38.33;;;12.50;;
68353;SDS011;55274;43.060;25.618;2023-12-29T00:26:10;38.58;;;13.45;;
68353;SDS011;55274;43.060;25.618;2023-12-29T00:28:36;32.08;;;13.25;;
68353;SDS011;55274;43.060;25.618;2023-12-29T00:31:05;31.98;;;12.90;;
68353;SDS011;55274;43.060;25.618;2023-12-29T00:33:31;39.53;;;13.02;;
68353;SDS011;55274;43.060;25.618;2023-12-29T00:35:57;30.35;;;13.13;;
68353;SDS011;55274;43.060;25.618;2023-12-29T00:38:24;37.08;;;13.38;;
68353;SDS011;55274;43.060;25.618;2023-12-29T00:40:51;32.83;;;13.10;;
68353;SDS011;55274;43.060;25.618;2023-12-29T00:43:17;29.30;;;12.52;;
68353;SDS011;55274;43.060;25.618;2023-12-29T00:45:43;37.90;;;12.93;;
68353;SDS011;55274;43.060;25.618;2023-12-29T00:48:08;37.60;;;13.63;;
68353;SDS011;55274;43.060;25.618;2023-12-29T00:50:34;33.50;;;13.23;;
68353;SDS011;55274;43.060;25.618;2023-12-29T00:53:00;27.73;;;11.95;;
68353;SDS011;55274;43.060;25.618;2023-12-29T00:55:26;28.92;;;12.43;;
68353;SDS011;55274;43.060;25.618;2023-12-29T00:57:51;32.70;;;12.80;;
68353;SDS011;55274;43.060;25.618;2023-12-29T01:00:18;35.70;;;12.63;;
68353;SDS011;55274;43.060;25.618;2023-12-29T01:02:44;36.75;;;13.07;;
68353;SDS011;55274;43.060;25.618;2023-12-29T01:05:14;46.40;;;13.02;;
68353;SDS011;55274;43.060;25.618;2023-12-29T01:07:41;37.35;;;11.70;;
68353;SDS011;55274;43.060;25.618;2023-12-29T01:10:07;29.08;;;11.30;;
68353;SDS011;55274;43.060;25.618;2023-12-29T01:12:33;38.35;;;13.05;;
68353;SDS011;55274;43.060;25.618;2023-12-29T01:14:59;37.33;;;12.57;;
68353;SDS011;55274;43.060;25.618;2023-12-29T01:17:25;33.47;;;11.70;;
68353;SDS011;55274;43.060;25.618;2023-12-29T01:19:53;37.72;;;12.48;;
68353;SDS011;55274;43.060;25.618;2023-12-29T01:22:19;40.83;;;13.95;;
68353;SDS011;55274;43.060;25.618;2023-12-29T01:24:44;32.33;;;12.68;;
68353;SDS011;55274;43.060;25.618;2023-12-29T01:27:10;28.60;;;11.82;;
68353;SDS011;55274;43.060;25.618;2023-12-29T01:29:36;28.63;;;11.90;;
68353;SDS011;55274;43.060;25.618;2023-12-29T01:32:02;30.83;;;12.25;;
68353;SDS011;55274;43.060;25.618;2023-12-29T01:34:31;35.75;;;12.32;;
68353;SDS011;55274;43.060;25.618;2023-12-29T01:37:04;24.98;;;12.15;;
68353;SDS011;55274;43.060;25.618;2023-12-29T01:39:30;33.70;;;12.80;;
68353;SDS011;55274;43.060;25.618;2023-12-29T01:41:56;30.20;;;11.90;;
68353;SDS011;55274;43.060;25.618;2023-12-29T01:44:22;44.90;;;12.10;;
68353;SDS011;55274;43.060;25.618;2023-12-29T01:46:51;34.42;;;12.30;;
68353;SDS011;55274;43.060;25.618;2023-12-29T01:49:20;29.45;;;12.35;;
68353;SDS011;55274;43.060;25.618;2023-12-29T01:51:53;29.63;;;12.55;;
68353;SDS011;55274;43.060;25.618;2023-12-29T01:54:21;33.85;;;12.98;;
68353;SDS011;55274;43.060;25.618;2023-12-29T01:56:50;34.78;;;13.77;;
68353;SDS011;55274;43.060;25.618;2023-12-29T01:59:20;32.22;;;13.02;;
68353;SDS011;55274;43.060;25.618;2023-12-29T02:01:46;37.80;;;13.55;;
68353;SDS011;55274;43.060;25.618;2023-12-29T02:04:12;30.58;;;12.65;;
68353;SDS011;55274;43.060;25.618;2023-12-29T02:06:39;34.13;;;13.65;;
68353;SDS011;55274;43.060;25.618;2023-12-29T02:09:05;48.92;;;13.73;;
68353;SDS011;55274;43.060;25.618;2023-12-29T02:11:31;42.50;;;13.00;;
68353;SDS011;55274;43.060;25.618;2023-12-29T02:13:58;34.47;;;13.88;;
68353;SDS011;55274;43.060;25.618;2023-12-29T02:22:01;33.25;;;13.27;;
68353;SDS011;55274;43.060;25.618;2023-12-29T02:24:27;41.60;;;14.23;;
68353;SDS011;55274;43.060;25.618;2023-12-29T02:29:33;39.25;;;13.88;;
68353;SDS011;55274;43.060;25.618;2023-12-29T02:32:00;39.40;;;14.13;;
68353;SDS011;55274;43.060;25.618;2023-12-29T02:34:31;38.88;;;12.68;;
68353;SDS011;55274;43.060;25.618;2023-12-29T02:36:58;47.22;;;13.80;;
68353;SDS011;55274;43.060;25.618;2023-12-29T02:39:24;28.33;;;13.10;;
68353;SDS011;55274;43.060;25.618;2023-12-29T02:41:50;34.45;;;13.30;;
68353;SDS011;55274;43.060;25.618;2023-12-29T02:44:16;32.40;;;12.75;;
68353;SDS011;55274;43.060;25.618;2023-12-29T02:46:41;32.53;;;12.05;;
68353;SDS011;55274;43.060;25.618;2023-12-29T02:49:07;29.02;;;11.63;;
68353;SDS011;55274;43.060;25.618;2023-12-29T02:51:37;28.02;;;11.57;;
68353;SDS011;55274;43.060;25.618;2023-12-29T02:54:04;33.15;;;12.35;;
68353;SDS011;55274;43.060;25.618;2023-12-29T02:56:31;27.20;;;11.88;;
68353;SDS011;55274;43.060;25.618;2023-12-29T02:58:56;27.15;;;11.25;;
68353;SDS011;55274;43.060;25.618;2023-12-29T03:01:22;22.65;;;11.23;;
68353;SDS011;55274;43.060;25.618;2023-12-29T03:03:48;28.80;;;11.95;;
68353;SDS011;55274;43.060;25.618;2023-12-29T03:06:14;32.42;;;11.25;;
68353;SDS011;55274;43.060;25.618;2023-12-29T03:08:39;30.35;;;11.88;;
68353;SDS011;55274;43.060;25.618;2023-12-29T03:11:06;28.02;;;11.85;;
68353;SDS011;55274;43.060;25.618;2023-12-29T03:13:32;30.15;;;13.18;;
68353;SDS011;55274;43.060;25.618;2023-12-29T03:15:58;30.75;;;11.45;;
68353;SDS011;55274;43.060;25.618;2023-12-29T03:18:23;26.85;;;11.82;;
68353;SDS011;55274;43.060;25.618;2023-12-29T03:20:49;30.02;;;12.05;;
68353;SDS011;55274;43.060;25.618;2023-12-29T03:23:15;31.73;;;12.05;;
68353;SDS011;55274;43.060;25.618;2023-12-29T03:25:40;30.88;;;12.43;;
68353;SDS011;55274;43.060;25.618;2023-12-29T03:28:06;31.90;;;12.77;;
68353;SDS011;55274;43.060;25.618;2023-12-29T03:30:32;36.63;;;11.98;;
68353;SDS011;55274;43.060;25.618;2023-12-29T03:32:57;34.05;;;12.02;;
68353;SDS011;55274;43.060;25.618;2023-12-29T03:35:23;48.05;;;14.55;;
68353;SDS011;55274;43.060;25.618;2023-12-29T03:37:49;51.65;;;13.23;;
68353;SDS011;55274;43.060;25.618;2023-12-29T03:40:15;57.20;;;14.77;;
68353;SDS011;55274;43.060;25.618;2023-12-29T03:42:41;53.40;;;14.45;;
68353;SDS011;55274;43.060;25.618;2023-12-29T03:45:07;42.75;;;12.68;;
68353;SDS011;55274;43.060;25.618;2023-12-29T03:47:33;46.28;;;13.88;;
68353;SDS011;55274;43.060;25.618;2023-12-29T03:50:00;46.72;;;13.90;;
68353;SDS011;55274;43.060;25.618;2023-12-29T03:52:26;37.55;;;12.98;;
68353;SDS011;55274;43.060;25.618;2023-12-29T03:54:51;32.75;;;12.85;;
68353;SDS011;55274;43.060;25.618;2023-12-29T03:57:17;37.38;;;11.27;;
68353;SDS011;55274;43.060;25.618;2023-12-29T03:59:43;31.25;;;11.93;;
68353;SDS011;55274;43.060;25.618;2023-12-29T04:02:08;31.95;;;11.25;;
68353;SDS011;55274;43.060;25.618;2023-12-29T04:04:37;27.23;;;10.90;;
68353;SDS011;55274;43.060;25.618;2023-12-29T04:07:03;36.90;;;11.43;;
68353;SDS011;55274;43.060;25.618;2023-12-29T04:09:30;55.53;;;12.35;;
68353;SDS011;55274;43.060;25.618;2023-12-29T04:11:56;53.15;;;13.48;;
68353;SDS011;55274;43.060;25.618;2023-12-29T04:14:22;134.25;;;20.25;;
68353;SDS011;55274;43.060;25.618;2023-12-29T04:16:47;123.25;;;17.35;;
68353;SDS011;55274;43.060;25.618;2023-12-29T04:19:13;123.80;;;16.35;;
68353;SDS011;55274;43.060;25.618;2023-12-29T04:21:39;238.48;;;28.23;;
68353;SDS011;55274;43.060;25.618;2023-12-29T04:24:04;86.07;;;14.27;;
68353;SDS011;55274;43.060;25.618;2023-12-29T04:26:35;50.00;;;13.02;;
68353;SDS011;55274;43.060;25.618;2023-12-29T04:29:01;47.80;;;12.35;;
68353;SDS011;55274;43.060;25.618;2023-12-29T04:31:27;38.45;;;11.85;;
68353;SDS011;55274;43.060;25.618;2023-12-29T04:33:53;43.20;;;12.40;;
68353;SDS011;55274;43.060;25.618;2023-12-29T04:36:18;32.47;;;11.10;;
68353;SDS011;55274;43.060;25.618;2023-12-29T04:38:44;26.35;;;11.20;;
68353;SDS011;55274;43.060;25.618;2023-12-29T04:41:13;27.83;;;10.93;;
68353;SDS011;55274;43.060;25.618;2023-12-29T04:43:39;25.23;;;9.88;;
68353;SDS011;55274;43.060;25.618;2023-12-29T04:46:05;32.83;;;11.65;;
68353;SDS011;55274;43.060;25.618;2023-12-29T04:48:31;28.75;;;11.38;;
68353;SDS011;55274;43.060;25.618;2023-12-29T04:50:57;30.95;;;12.18;;
68353;SDS011;55274;43.060;25.618;2023-12-29T04:53:22;35.17;;;12.30;;
68353;SDS011;55274;43.060;25.618;2023-12-29T04:55:48;27.55;;;11.57;;
68353;SDS011;55274;43.060;25.618;2023-12-29T04:58:14;46.35;;;13.32;;
68353;SDS011;55274;43.060;25.618;2023-12-29T05:00:40;30.13;;;12.68;;
68353;SDS011;55274;43.060;25.618;2023-12-29T05:03:05;63.10;;;14.02;;
68353;SDS011;55274;43.060;25.618;2023-12-29T05:05:31;58.72;;;13.75;;
68353;SDS011;55274;43.060;25.618;2023-12-29T05:07:57;47.80;;;15.00;;
68353;SDS011;55274;43.060;25.618;2023-12-29T05:10:22;67.70;;;14.43;;
68353;SDS011;55274;43.060;25.618;2023-12-29T05:12:48;45.45;;;15.05;;
68353;SDS011;55274;43.060;25.618;2023-12-29T05:15:14;39.08;;;13.40;;
68353;SDS011;55274;43.060;25.618;2023-12-29T05:17:40;73.97;;;15.75;;
68353;SDS011;55274;43.060;25.618;2023-12-29T05:20:06;58.53;;;17.23;;
68353;SDS011;55274;43.060;25.618;2023-12-29T05:22:32;55.20;;;17.40;;
68353;SDS011;55274;43.060;25.618;2023-12-29T05:24:58;45.42;;;17.42;;
68353;SDS011;55274;43.060;25.618;2023-12-29T05:27:25;36.72;;;14.63;;
68353;SDS011;55274;43.060;25.618;2023-12-29T05:29:51;39.13;;;15.10;;
68353;SDS011;55274;43.060;25.618;2023-12-29T05:32:17;44.67;;;14.07;;
68353;SDS011;55274;43.060;25.618;2023-12-29T05:34:43;33.60;;;12.85;;
68353;SDS011;55274;43.060;25.618;2023-12-29T05:37:09;35.42;;;12.95;;
68353;SDS011;55274;43.060;25.618;2023-12-29T05:39:35;50.85;;;14.25;;
68353;SDS011;55274;43.060;25.618;2023-12-29T05:42:01;30.17;;;11.02;;
68353;SDS011;55274;43.060;25.618;2023-12-29T05:44:27;36.17;;;11.30;;
68353;SDS011;55274;43.060;25.618;2023-12-29T05:46:52;24.60;;;10.75;;
68353;SDS011;55274;43.060;25.618;2023-12-29T05:49:23;22.67;;;10.68;;
68353;SDS011;55274;43.060;25.618;2023-12-29T05:51:50;26.50;;;11.32;;
68353;SDS011;55274;43.060;25.618;2023-12-29T05:54:16;40.78;;;12.60;;
68353;SDS011;55274;43.060;25.618;2023-12-29T05:56:42;38.08;;;12.90;;
68353;SDS011;55274;43.060;25.618;2023-12-29T05:59:08;25.33;;;11.27;;
68353;SDS011;55274;43.060;25.618;2023-12-29T06:01:34;233.27;;;28.70;;
68353;SDS011;55274;43.060;25.618;2023-12-29T06:04:00;79.85;;;16.23;;
68353;SDS011;55274;43.060;25.618;2023-12-29T06:06:26;59.63;;;17.30;;
68353;SDS011;55274;43.060;25.618;2023-12-29T06:08:51;34.97;;;13.27;;
68353;SDS011;55274;43.060;25.618;2023-12-29T06:11:17;32.72;;;12.38;;
68353;SDS011;55274;43.060;25.618;2023-12-29T06:13:43;37.75;;;11.77;;
68353;SDS011;55274;43.060;25.618;2023-12-29T06:16:09;37.63;;;11.65;;
68353;SDS011;55274;43.060;25.618;2023-12-29T06:18:34;37.90;;;12.45;;
68353;SDS011;55274;43.060;25.618;2023-12-29T06:21:01;42.03;;;12.43;;
68353;SDS011;55274;43.060;25.618;2023-12-29T06:23:28;41.65;;;12.55;;
68353;SDS011;55274;43.060;25.618;2023-12-29T06:25:54;37.22;;;12.75;;
68353;SDS011;55274;43.060;25.618;2023-12-29T06:28:19;48.65;;;14.00;;
68353;SDS011;55274;43.060;25.618;2023-12-29T06:30:45;41.22;;;13.57;;
68353;SDS011;55274;43.060;25.618;2023-12-29T06:33:11;39.95;;;13.02;;
68353;SDS011;55274;43.060;25.618;2023-12-29T06:35:37;46.53;;;13.13;;
68353;SDS011;55274;43.060;25.618;2023-12-29T06:38:04;34.92;;;13.15;;
68353;SDS011;55274;43.060;25.618;2023-12-29T06:40:29;68.70;;;14.60;;
68353;SDS011;55274;43.060;25.618;2023-12-29T06:42:55;42.22;;;14.13;;
68353;SDS011;55274;43.060;25.618;2023-12-29T06:45:21;45.70;;;14.35;;
68353;SDS011;55274;43.060;25.618;2023-12-29T06:47:47;45.15;;;14.18;;
68353;SDS011;55274;43.060;25.618;2023-12-29T06:50:12;39.10;;;14.02;;
68353;SDS011;55274;43.060;25.618;2023-12-29T06:52:39;55.78;;;15.13;;
68353;SDS011;55274;43.060;25.618;2023-12-29T06:55:05;49.70;;;16.10;;
68353;SDS011;55274;43.060;25.618;2023-12-29T06:57:32;49.78;;;14.38;;
68353;SDS011;55274;43.060;25.618;2023-12-29T06:59:58;45.95;;;17.00;;
68353;SDS011;55274;43.060;25.618;2023-12-29T07:02:23;43.95;;;18.15;;
68353;SDS011;55274;43.060;25.618;2023-12-29T07:04:49;68.10;;;18.85;;
68353;SDS011;55274;43.060;25.618;2023-12-29T07:07:15;46.20;;;16.38;;
68353;SDS011;55274;43.060;25.618;2023-12-29T07:09:41;48.65;;;17.08;;
68353;SDS011;55274;43.060;25.618;2023-12-29T07:12:07;54.78;;;18.05;;
68353;SDS011;55274;43.060;25.618;2023-12-29T07:14:33;52.70;;;18.52;;
68353;SDS011;55274;43.060;25.618;2023-12-29T07:17:00;56.63;;;19.02;;
68353;SDS011;55274;43.060;25.618;2023-12-29T07:19:27;58.03;;;17.90;;
68353;SDS011;55274;43.060;25.618;2023-12-29T07:21:59;62.70;;;19.35;;
68353;SDS011;55274;43.060;25.618;2023-12-29T07:24:25;72.18;;;19.50;;
68353;SDS011;55274;43.060;25.618;2023-12-29T07:26:50;54.13;;;19.80;;
68353;SDS011;55274;43.060;25.618;2023-12-29T07:29:16;70.18;;;22.23;;
68353;SDS011;55274;43.060;25.618;2023-12-29T07:31:42;82.38;;;24.13;;
68353;SDS011;55274;43.060;25.618;2023-12-29T07:34:08;63.05;;;22.70;;
68353;SDS011;55274;43.060;25.618;2023-12-29T07:36:37;69.25;;;23.40;;
68353;SDS011;55274;43.060;25.618;2023-12-29T07:39:04;70.03;;;26.10;;
68353;SDS011;55274;43.060;25.618;2023-12-29T07:41:33;83.90;;;27.33;;
68353;SDS011;55274;43.060;25.618;2023-12-29T07:44:07;68.13;;;25.85;;
68353;SDS011;55274;43.060;25.618;2023-12-29T07:46:35;49.05;;;20.52;;
68353;SDS011;55274;43.060;25.618;2023-12-29T07:49:01;48.05;;;17.98;;
68353;SDS011;55274;43.060;25.618;2023-12-29T07:51:27;38.17;;;16.92;;
68353;SDS011;55274;43.060;25.618;2023-12-29T07:53:53;38.95;;;15.27;;
68353;SDS011;55274;43.060;25.618;2023-12-29T07:56:19;46.17;;;15.65;;
68353;SDS011;55274;43.060;25.618;2023-12-29T07:58:45;41.22;;;16.60;;
68353;SDS011;55274;43.060;25.618;2023-12-29T08:01:10;46.92;;;17.17;;
68353;SDS011;55274;43.060;25.618;2023-12-29T08:03:36;29.50;;;13.00;;
68353;SDS011;55274;43.060;25.618;2023-12-29T08:06:02;25.17;;;11.85;;
68353;SDS011;55274;43.060;25.618;2023-12-29T08:08:28;25.92;;;10.10;;
68353;SDS011;55274;43.060;25.618;2023-12-29T08:10:54;30.00;;;12.40;;
68353;SDS011;55274;43.060;25.618;2023-12-29T08:13:19;31.85;;;13.30;;
68353;SDS011;55274;43.060;25.618;2023-12-29T08:15:45;39.10;;;14.13;;
68353;SDS011;55274;43.060;25.618;2023-12-29T08:18:11;26.27;;;12.13;;
68353;SDS011;55274;43.060;25.618;2023-12-29T08:20:37;24.33;;;10.65;;
68353;SDS011;55274;43.060;25.618;2023-12-29T08:23:02;21.58;;;9.85;;
68353;SDS011;55274;43.060;25.618;2023-12-29T08:25:29;22.63;;;9.73;;
68353;SDS011;55274;43.060;25.618;2023-12-29T08:27:57;19.35;;;9.65;;
68353;SDS011;55274;43.060;25.618;2023-12-29T08:30:23;23.27;;;10.40;;
68353;SDS011;55274;43.060;25.618;2023-12-29T08:32:49;24.92;;;10.50;;
68353;SDS011;55274;43.060;25.618;2023-12-29T08:35:15;25.02;;;9.60;;
68353;SDS011;55274;43.060;25.618;2023-12-29T08:37:40;17.30;;;9.77;;
68353;SDS011;55274;43.060;25.618;2023-12-29T08:40:07;20.45;;;9.05;;
68353;SDS011;55274;43.060;25.618;2023-12-29T08:42:33;17.63;;;8.93;;
68353;SDS011;55274;43.060;25.618;2023-12-29T08:44:59;22.15;;;8.88;;
68353;SDS011;55274;43.060;25.618;2023-12-29T08:47:25;16.60;;;8.35;;
68353;SDS011;55274;43.060;25.618;2023-12-29T08:49:51;15.30;;;8.00;;
68353;SDS011;55274;43.060;25.618;2023-12-29T08:52:19;32.00;;;13.30;;
68353;SDS011;55274;43.060;25.618;2023-12-29T08:54:45;31.90;;;13.00;;
68353;SDS011;55274;43.060;25.618;2023-12-29T08:57:11;31.15;;;13.63;;
68353;SDS011;55274;43.060;25.618;2023-12-29T08:59:37;28.02;;;12.85;;
68353;SDS011;55274;43.060;25.618;2023-12-29T09:02:03;27.60;;;12.70;;
68353;SDS011;55274;43.060;25.618;2023-12-29T09:04:29;33.80;;;14.25;;
68353;SDS011;55274;43.060;25.618;2023-12-29T09:06:54;30.17;;;14.55;;
68353;SDS011;55274;43.060;25.618;2023-12-29T09:09:22;27.30;;;13.43;;
68353;SDS011;55274;43.060;25.618;2023-12-29T09:11:48;36.33;;;16.70;;
68353;SDS011;55274;43.060;25.618;2023-12-29T09:14:14;40.10;;;18.38;;
68353;SDS011;55274;43.060;25.618;2023-12-29T09:16:40;46.97;;;17.52;;
68353;SDS011;55274;43.060;25.618;2023-12-29T09:19:07;40.00;;;17.55;;
68353;SDS011;55274;43.060;25.618;2023-12-29T09:21:33;34.67;;;16.40;;
68353;SDS011;55274;43.060;25.618;2023-12-29T09:23:59;32.30;;;15.40;;
68353;SDS011;55274;43.060;25.618;2023-12-29T09:26:24;28.77;;;13.90;;
68353;SDS011;55274;43.060;25.618;2023-12-29T09:28:50;30.10;;;15.00;;
68353;SDS011;55274;43.060;25.618;2023-12-29T09:31:16;31.60;;;14.25;;
68353;SDS011;55274;43.060;25.618;2023-12-29T09:33:42;51.00;;;15.93;;
68353;SDS011;55274;43.060;25.618;2023-12-29T09:36:10;32.03;;;16.45;;
68353;SDS011;55274;43.060;25.618;2023-12-29T09:38:36;29.65;;;14.77;;
68353;SDS011;55274;43.060;25.618;2023-12-29T09:41:04;38.17;;;16.05;;
68353;SDS011;55274;43.060;25.618;2023-12-29T09:43:34;26.75;;;13.32;;
68353;SDS011;55274;43.060;25.618;2023-12-29T09:46:01;32.33;;;14.27;;
68353;SDS011;55274;43.060;25.618;2023-12-29T09:48:28;28.33;;;13.75;;
68353;SDS011;55274;43.060;25.618;2023-12-29T09:51:09;25.67;;;13.60;;
68353;SDS011;55274;43.060;25.618;2023-12-29T09:53:36;26.40;;;12.43;;
68353;SDS011;55274;43.060;25.618;2023-12-29T09:56:03;29.05;;;12.75;;
68353;SDS011;55274;43.060;25.618;2023-12-29T09:58:30;23.52;;;12.18;;
68353;SDS011;55274;43.060;25.618;2023-12-29T10:00:56;24.50;;;11.88;;
68353;SDS011;55274;43.060;25.618;2023-12-29T10:03:22;18.50;;;10.85;;
68353;SDS011;55274;43.060;25.618;2023-12-29T10:05:49;16.42;;;9.30;;
68353;SDS011;55274;43.060;25.618;2023-12-29T10:08:19;17.42;;;8.80;;
68353;SDS011;55274;43.060;25.618;2023-12-29T10:10:47;30.55;;;10.02;;
68353;SDS011;55274;43.060;25.618;2023-12-29T10:13:15;24.52;;;9.15;;
68353;SDS011;55274;43.060;25.618;2023-12-29T10:15:47;42.83;;;11.02;;
68353;SDS011;55274;43.060;25.618;2023-12-29T10:18:27;88.63;;;13.73;;
68353;SDS011;55274;43.060;25.618;2023-12-29T10:21:17;80.47;;;13.18;;
68353;SDS011;55274;43.060;25.618;2023-12-29T10:26:31;24.60;;;10.43;;
68353;SDS011;55274;43.060;25.618;2023-12-29T10:29:01;14.27;;;7.28;;
68353;SDS011;55274;43.060;25.618;2023-12-29T10:31:35;12.57;;;6.97;;
68353;SDS011;55274;43.060;25.618;2023-12-29T10:36:54;138.18;;;14.55;;
68353;SDS011;55274;43.060;25.618;2023-12-29T10:39:21;46.72;;;9.63;;
68353;SDS011;55274;43.060;25.618;2023-12-29T10:41:47;63.15;;;10.55;;
68353;SDS011;55274;43.060;25.618;2023-12-29T10:44:16;26.05;;;6.10;;
68353;SDS011;55274;43.060;25.618;2023-12-29T10:46:42;55.05;;;8.07;;
68353;SDS011;55274;43.060;25.618;2023-12-29T10:49:09;19.83;;;6.18;;
68353;SDS011;55274;43.060;25.618;2023-12-29T10:51:36;22.05;;;6.90;;
68353;SDS011;55274;43.060;25.618;2023-12-29T10:54:05;70.43;;;10.35;;
68353;SDS011;55274;43.060;25.618;2023-12-29T10:56:31;118.32;;;16.08;;
68353;SDS011;55274;43.060;25.618;2023-12-29T10:59:04;80.75;;;13.02;;
68353;SDS011;55274;43.060;25.618;2023-12-29T11:01:31;14.93;;;3.90;;
68353;SDS011;55274;43.060;25.618;2023-12-29T11:06:40;4.75;;;2.83;;
68353;SDS011;55274;43.060;25.618;2023-12-29T11:09:10;6.15;;;3.20;;
68353;SDS011;55274;43.060;25.618;2023-12-29T11:11:36;7.43;;;3.00;;
68353;SDS011;55274;43.060;25.618;2023-12-29T11:14:03;4.45;;;2.83;;
68353;SDS011;55274;43.060;25.618;2023-12-29T11:16:35;4.47;;;2.70;;
68353;SDS011;55274;43.060;25.618;2023-12-29T11:19:01;7.57;;;3.15;;
68353;SDS011;55274;43.060;25.618;2023-12-29T11:21:28;10.32;;;3.35;;
68353;SDS011;55274;43.060;25.618;2023-12-29T11:23:56;9.20;;;3.28;;
68353;SDS011;55274;43.060;25.618;2023-12-29T11:26:23;9.73;;;3.60;;
68353;SDS011;55274;43.060;25.618;2023-12-29T11:28:50;4.65;;;2.35;;
68353;SDS011;55274;43.060;25.618;2023-12-29T11:31:17;8.98;;;3.35;;
68353;SDS011;55274;43.060;25.618;2023-12-29T11:33:45;8.32;;;3.00;;
68353;SDS011;55274;43.060;25.618;2023-12-29T11:36:28;4.55;;;2.80;;
68353;SDS011;55274;43.060;25.618;2023-12-29T11:38:58;6.50;;;2.88;;
68353;SDS011;55274;43.060;25.618;2023-12-29T11:43:59;4.55;;;2.60;;
68353;SDS011;55274;43.060;25.618;2023-12-29T11:49:02;8.55;;;4.30;;
68353;SDS011;55274;43.060;25.618;2023-12-29T11:51:33;6.15;;;3.78;;
68353;SDS011;55274;43.060;25.618;2023-12-29T11:54:10;8.30;;;3.08;;
68353;SDS011;55274;43.060;25.618;2023-12-29T11:56:46;7.10;;;2.60;;
68353;SDS011;55274;43.060;25.618;2023-12-29T11:59:13;7.35;;;4.05;;
68353;SDS011;55274;43.060;25.618;2023-12-29T12:01:40;3.63;;;2.42;;
68353;SDS011;55274;43.060;25.618;2023-12-29T12:10:28;5.25;;;2.47;;
68353;SDS011;55274;43.060;25.618;2023-12-29T12:12:44;6.70;;;2.92;;
68353;SDS011;55274;43.060;25.618;2023-12-29T12:17:55;4.47;;;2.22;;
68353;SDS011;55274;43.060;25.618;2023-12-29T12:20:22;5.40;;;2.10;;
68353;SDS011;55274;43.060;25.618;2023-12-29T12:22:50;4.32;;;2.10;;
68353;SDS011;55274;43.060;25.618;2023-12-29T12:25:36;11.20;;;2.92;;
68353;SDS011;55274;43.060;25.618;2023-12-29T12:28:05;7.15;;;2.63;;
68353;SDS011;55274;43.060;25.618;2023-12-29T12:30:37;4.70;;;2.30;;
68353;SDS011;55274;43.060;25.618;2023-12-29T12:33:03;3.85;;;2.25;;
68353;SDS011;55274;43.060;25.618;2023-12-29T12:35:30;3.88;;;2.33;;
68353;SDS011;55274;43.060;25.618;2023-12-29T12:38:11;3.53;;;2.20;;
68353;SDS011;55274;43.060;25.618;2023-12-29T12:40:39;5.30;;;2.55;;
68353;SDS011;55274;43.060;25.618;2023-12-29T12:43:05;4.95;;;2.30;;
68353;SDS011;55274;43.060;25.618;2023-12-29T12:45:40;4.82;;;2.40;;
68353;SDS011;55274;43.060;25.618;2023-12-29T12:50:59;4.35;;;2.15;;
68353;SDS011;55274;43.060;25.618;2023-12-29T12:53:25;5.53;;;2.20;;
68353;SDS011;55274;43.060;25.618;2023-12-29T12:55:52;5.25;;;2.20;;
68353;SDS011;55274;43.060;25.618;2023-12-29T12:58:19;6.78;;;2.20;;
68353;SDS011;55274;43.060;25.618;2023-12-29T13:00:46;5.32;;;2.70;;
68353;SDS011;55274;43.060;25.618;2023-12-29T13:03:12;5.82;;;2.55;;
68353;SDS011;55274;43.060;25.618;2023-12-29T13:05:40;7.72;;;3.15;;
68353;SDS011;55274;43.060;25.618;2023-12-29T13:08:06;6.03;;;3.00;;
68353;SDS011;55274;43.060;25.618;2023-12-29T13:10:32;5.20;;;2.67;;
68353;SDS011;55274;43.060;25.618;2023-12-29T13:12:58;3.80;;;2.10;;
68353;SDS011;55274;43.060;25.618;2023-12-29T13:15:24;5.22;;;2.08;;
68353;SDS011;55274;43.060;25.618;2023-12-29T13:17:54;4.22;;;2.42;;
68353;SDS011;55274;43.060;25.618;2023-12-29T13:20:20;5.30;;;2.20;;
68353;SDS011;55274;43.060;25.618;2023-12-29T13:22:47;3.33;;;1.90;;
68353;SDS011;55274;43.060;25.618;2023-12-29T13:25:20;3.42;;;1.88;;
68353;SDS011;55274;43.060;25.618;2023-12-29T13:27:49;5.80;;;2.30;;
68353;SDS011;55274;43.060;25.618;2023-12-29T13:30:16;6.72;;;2.63;;
68353;SDS011;55274;43.060;25.618;2023-12-29T13:32:43;6.78;;;2.80;;
68353;SDS011;55274;43.060;25.618;2023-12-29T13:37:53;3.15;;;1.90;;
68353;SDS011;55274;43.060;25.618;2023-12-29T13:42:59;6.57;;;2.70;;
68353;SDS011;55274;43.060;25.618;2023-12-29T13:45:29;8.13;;;2.70;;
68353;SDS011;55274;43.060;25.618;2023-12-29T13:47:56;8.13;;;2.75;;
68353;SDS011;55274;43.060;25.618;2023-12-29T13:50:24;9.80;;;2.50;;
68353;SDS011;55274;43.060;25.618;2023-12-29T13:52:50;12.93;;;2.75;;
68353;SDS011;55274;43.060;25.618;2023-12-29T13:55:22;12.45;;;2.45;;
68353;SDS011;55274;43.060;25.618;2023-12-29T13:57:50;7.97;;;2.70;;
68353;SDS011;55274;43.060;25.618;2023-12-29T14:00:23;15.68;;;2.95;;
68353;SDS011;55274;43.060;25.618;2023-12-29T14:10:43;42.35;;;4.30;;
68353;SDS011;55274;43.060;25.618;2023-12-29T14:13:10;42.60;;;4.97;;
68353;SDS011;55274;43.060;25.618;2023-12-29T14:15:39;28.33;;;4.45;;
68353;SDS011;55274;43.060;25.618;2023-12-29T14:20:38;16.75;;;3.38;;
68353;SDS011;55274;43.060;25.618;2023-12-29T14:23:05;13.63;;;2.28;;
68353;SDS011;55274;43.060;25.618;2023-12-29T14:25:35;10.88;;;2.80;;
68353;SDS011;55274;43.060;25.618;2023-12-29T14:28:04;12.23;;;3.10;;
68353;SDS011;55274;43.060;25.618;2023-12-29T14:30:40;51.80;;;5.22;;
68353;SDS011;55274;43.060;25.618;2023-12-29T14:33:06;26.08;;;3.03;;
68353;SDS011;55274;43.060;25.618;2023-12-29T14:35:33;146.60;;;12.20;;
68353;SDS011;55274;43.060;25.618;2023-12-29T14:37:58;110.75;;;9.00;;
68353;SDS011;55274;43.060;25.618;2023-12-29T14:40:25;49.65;;;5.25;;
68353;SDS011;55274;43.060;25.618;2023-12-29T14:42:50;69.25;;;7.05;;
68353;SDS011;55274;43.060;25.618;2023-12-29T14:45:16;58.00;;;5.95;;
68353;SDS011;55274;43.060;25.618;2023-12-29T14:47:42;70.75;;;7.78;;
68353;SDS011;55274;43.060;25.618;2023-12-29T14:50:10;62.60;;;6.45;;
68353;SDS011;55274;43.060;25.618;2023-12-29T14:52:36;58.88;;;6.78;;
68353;SDS011;55274;43.060;25.618;2023-12-29T14:55:03;58.17;;;6.97;;
68353;SDS011;55274;43.060;25.618;2023-12-29T14:57:28;83.03;;;7.05;;
68353;SDS011;55274;43.060;25.618;2023-12-29T14:59:54;96.47;;;9.68;;
68353;SDS011;55274;43.060;25.618;2023-12-29T15:02:20;172.60;;;16.20;;